メインページ
METAR-TAF:

METAR-TAF

空港 :

ウェリントン国際空港

ウェリントン, ニュージーランド

緯度: 41-20S, 経度: 174-48E, 海抜: 12m

現時点の気象観測

当レポートは16分前の10:00(UTC)に作成
の風 2kt
気温 6°C
湿度 81%
気圧 1012 hPa
視程10km以上

METAR: NZWN 181000Z AUTO 08002KT 9999 FEW060/// 06/03 Q1012 NOSIG

時間: 22:16 (10:16 UTC)

予報

当レポートは48分前の09:28(UTC)に作成
予報は18日の 09時(UTC)から 19日の 06時(UTC)まで有効
の風 5kt
視程10km以上
高度4000ftの雲は散在している
19日の 01時(UTC)から 19日の 03時(UTC)まで徐々に
北/北西の風 15kt

TAF: NZWN 180928Z 1809/1906 01005KT 9999 SCT040 BECMG 1901/1903 34015KT

4,000以上の空港の気象観測と天気予報(METAR報とTAF報)

利用可能な観測所は地図上に黄色い丸と赤い丸で示す。

丸の上にカーソルを重ねると観測所名を参照できる。

次にクリックすると気象観測と天気予報を参照できる。

マップの切り替え:黒色「×」印の緑ボタンをクリックして拡大、「-」印の緑ボタンをクリックして縮小、緑色の三角印をクリックして隣りの地図に切り替え


METAR-TAF: